Time;durP1;ratioP1;P1;durP2;ratioP2;P2;SDS_P1;SDS_P2;PMS_P1;PMS_P2;Temp;Humidity;BMP_temperature;BMP_pressure;BME280_temperature;BME280_humidity;BME280_pressure;Samples;Min_cycle;Max_cycle;Signal;HPM_P1;HPM_P2
2021/06/29 00:00:59;;;;;;;2.47;2.28;;;;;;;21.75;60.65;97053.81;5017726;28;20088;-77
2021/06/29 00:03:24;;;;;;;2.70;2.50;;;;;;;21.78;61.10;97049.72;5033114;28;20032;-77
2021/06/29 00:05:50;;;;;;;2.83;2.63;;;;;;;21.72;61.15;97045.72;5048947;28;20040;-78
2021/06/29 00:08:15;;;;;;;2.50;2.30;;;;;;;21.65;61.15;97027.69;5046621;28;20492;-77
2021/06/29 00:10:42;;;;;;;3.00;2.50;;;;;;;21.61;61.12;97019.59;5050925;28;20090;-77
2021/06/29 00:13:07;;;;;;;2.83;2.63;;;;;;;21.70;61.09;97019.53;5019251;28;20101;-77
2021/06/29 00:15:34;;;;;;;2.58;2.38;;;;;;;21.63;61.27;97017.41;5052955;28;20479;-77
2021/06/29 00:18:00;;;;;;;2.65;2.45;;;;;;;21.63;61.39;97009.44;5026418;28;20360;-77
2021/06/29 00:20:26;;;;;;;2.47;2.35;;;;;;;21.63;61.01;97006.03;5051523;28;20028;-77
2021/06/29 00:22:51;;;;;;;2.78;2.58;;;;;;;21.57;61.31;97002.00;5033064;28;20036;-77
2021/06/29 00:25:18;;;;;;;2.67;2.47;;;;;;;21.65;61.08;97009.13;5046318;28;20037;-77
2021/06/29 00:27:44;;;;;;;2.83;2.63;;;;;;;21.62;61.00;97021.13;5034699;28;20439;-77
2021/06/29 00:30:10;;;;;;;2.78;2.58;;;;;;;21.65;60.82;97028.44;5036366;28;20028;-77
2021/06/29 00:32:36;;;;;;;2.75;2.55;;;;;;;21.63;60.66;97037.81;5070612;28;20032;-78
2021/06/29 00:35:04;;;;;;;2.78;2.53;;;;;;;21.61;61.11;97034.69;5036315;28;20028;-77
2021/06/29 00:37:29;;;;;;;2.58;2.38;;;;;;;21.55;61.25;97036.75;5052554;28;20028;-77
2021/06/29 00:39:54;;;;;;;2.92;2.60;;;;;;;21.54;61.11;97035.22;5052646;28;20033;-77
2021/06/29 00:42:20;;;;;;;2.80;2.60;;;;;;;21.47;61.13;97040.22;5070581;28;20395;-77
2021/06/29 00:44:46;;;;;;;4.32;3.10;;;;;;;21.38;61.79;97032.28;5055958;28;20546;-77
2021/06/29 00:47:11;;;;;;;6.90;3.42;;;;;;;21.35;61.79;97027.59;5070436;28;20037;-77
2021/06/29 00:49:37;;;;;;;2.60;2.40;;;;;;;21.38;61.55;97019.03;5052284;28;20051;-77
2021/06/29 00:52:04;;;;;;;2.63;2.40;;;;;;;21.35;61.77;97021.53;5017694;28;20492;-77
2021/06/29 00:54:30;;;;;;;2.90;2.70;;;;;;;21.32;61.79;97012.38;5035243;28;20068;-77
2021/06/29 00:56:55;;;;;;;4.05;2.80;;;;;;;21.37;61.62;97006.09;5057500;28;20466;-77
2021/06/29 00:59:21;;;;;;;2.97;2.78;;;;;;;21.27;62.04;97002.72;5065206;28;20086;-77
2021/06/29 01:01:46;;;;;;;3.28;2.45;;;;;;;21.29;62.11;97002.41;5033337;28;20036;-77
2021/06/29 01:04:15;;;;;;;2.75;2.55;;;;;;;21.22;62.26;96999.50;5032959;28;20032;-77
2021/06/29 01:06:43;;;;;;;3.67;3.28;;;;;;;21.18;62.38;96985.31;5034228;28;20032;-77
2021/06/29 01:09:09;;;;;;;3.15;2.90;;;;;;;21.12;62.43;96982.84;5058343;28;20071;-77
2021/06/29 01:11:34;;;;;;;3.63;3.03;;;;;;;21.12;62.59;96979.44;5035582;28;20044;-77
2021/06/29 01:14:16;;;;;;;3.08;2.72;;;;;;;20.88;63.25;96961.44;5055176;28;20025;-77
2021/06/29 01:16:43;;;;;;;3.60;2.50;;;;;;;21.09;62.75;96964.94;5045759;28;20052;-77
2021/06/29 01:19:10;;;;;;;3.17;2.65;;;;;;;21.06;62.88;96962.94;5034455;28;20467;-77
2021/06/29 01:21:39;;;;;;;2.97;2.78;;;;;;;21.07;62.70;96972.44;5050108;28;20029;-77
2021/06/29 01:24:10;;;;;;;2.88;2.58;;;;;;;20.92;63.07;96972.94;5068435;28;20028;-77
2021/06/29 01:26:38;;;;;;;2.75;2.58;;;;;;;21.02;62.88;96977.13;5034174;28;20527;-77
2021/06/29 01:29:06;;;;;;;2.80;2.60;;;;;;;20.96;63.17;96968.59;5050221;28;20051;-77
2021/06/29 01:31:36;;;;;;;3.22;3.03;;;;;;;20.90;63.03;96970.63;5033908;28;20124;-77
2021/06/29 01:34:02;;;;;;;3.13;2.83;;;;;;;20.88;63.27;96969.38;5034527;28;20387;-77
2021/06/29 01:36:34;;;;;;;2.83;2.63;;;;;;;20.86;63.22;96961.00;5034150;28;20039;-77
2021/06/29 01:39:00;;;;;;;3.30;3.00;;;;;;;20.93;63.22;96972.63;5036175;28;20028;-77
2021/06/29 01:41:26;;;;;;;3.10;2.90;;;;;;;20.89;63.45;96968.31;5052079;28;20040;-77
2021/06/29 01:43:55;;;;;;;3.75;3.30;;;;;;;20.86;63.30;96974.22;5051766;28;20586;-77
2021/06/29 01:46:23;;;;;;;3.35;3.10;;;;;;;20.89;63.72;96968.31;5061941;28;20039;-77
2021/06/29 01:48:50;;;;;;;2.85;2.65;;;;;;;20.88;63.40;96972.03;5065082;28;20039;-77
2021/06/29 01:51:17;;;;;;;3.13;2.78;;;;;;;20.88;63.62;96977.34;5035480;28;20036;-77
2021/06/29 01:53:43;;;;;;;3.78;3.00;;;;;;;20.91;63.84;96993.34;5051438;28;20111;-77
2021/06/29 01:56:14;;;;;;;2.67;2.45;;;;;;;20.90;63.77;96980.44;5021427;28;20127;-77
2021/06/29 01:58:48;;;;;;;3.10;2.80;;;;;;;20.90;63.91;96978.56;5033341;28;20021;-77
2021/06/29 02:01:14;;;;;;;2.83;2.63;;;;;;;20.90;63.83;96978.56;5051587;28;20032;-77
2021/06/29 02:03:39;;;;;;;3.47;3.28;;;;;;;20.93;63.59;96979.81;5051572;28;21050;-77
2021/06/29 02:06:04;;;;;;;4.57;3.35;;;;;;;20.91;63.72;96966.88;5021924;28;20032;-77
2021/06/29 02:08:30;;;;;;;3.10;2.90;;;;;;;20.92;63.63;96978.25;5051303;28;20360;-77
2021/06/29 02:10:55;;;;;;;3.25;3.05;;;;;;;21.01;63.23;96989.59;5018678;28;20044;-77
2021/06/29 02:13:23;;;;;;;4.90;3.50;;;;;;;20.99;63.35;96989.16;5039677;28;20533;-77
2021/06/29 02:15:49;;;;;;;3.55;3.25;;;;;;;20.98;63.32;96981.50;5068032;28;20032;-77
2021/06/29 02:18:14;;;;;;;3.05;2.78;;;;;;;21.03;63.13;96989.28;5041514;28;20056;-77
2021/06/29 02:20:40;;;;;;;3.13;2.83;;;;;;;20.98;63.27;96987.56;5061034;28;20036;-77
2021/06/29 02:23:05;;;;;;;3.35;2.85;;;;;;;21.03;63.17;96979.47;5038259;28;20412;-76
2021/06/29 02:25:31;;;;;;;3.35;3.05;;;;;;;21.05;63.39;96992.38;5055133;28;20047;-77
2021/06/29 02:27:56;;;;;;;3.22;2.92;;;;;;;21.09;63.20;96988.00;5055240;28;20029;-77
2021/06/29 02:30:22;;;;;;;3.80;3.50;;;;;;;21.09;63.32;96988.75;5034861;28;20029;-77
2021/06/29 02:32:48;;;;;;;2.88;2.67;;;;;;;21.10;63.33;96982.38;5054652;28;20035;-77
2021/06/29 02:35:14;;;;;;;3.45;3.15;;;;;;;21.16;63.25;96984.88;5071361;28;20036;-77
2021/06/29 02:37:39;;;;;;;3.22;3.00;;;;;;;21.19;63.24;96976.28;5051578;28;20036;-77
2021/06/29 02:40:06;;;;;;;3.13;2.88;;;;;;;21.19;62.78;96981.59;5053782;28;20036;-77
2021/06/29 02:42:33;;;;;;;3.00;2.75;;;;;;;21.25;62.86;96981.09;5054926;28;20060;-77
2021/06/29 02:45:03;;;;;;;2.80;2.60;;;;;;;21.22;62.74;96970.38;5033558;28;20675;-77
2021/06/29 02:47:29;;;;;;;2.80;2.60;;;;;;;21.28;62.34;96969.06;5031076;28;20025;-77
2021/06/29 02:49:54;;;;;;;3.22;2.95;;;;;;;21.26;62.61;96977.34;5034620;28;20434;-77
2021/06/29 02:52:19;;;;;;;4.47;2.70;;;;;;;21.23;62.58;96977.19;5069383;28;20592;-77
2021/06/29 02:54:45;;;;;;;4.20;2.95;;;;;;;21.22;62.57;96973.00;5054651;28;20391;-78
2021/06/29 02:57:10;;;;;;;2.75;2.58;;;;;;;21.22;62.32;96970.38;5070908;28;20056;-77
2021/06/29 02:59:35;;;;;;;2.90;2.50;;;;;;;21.25;62.29;96977.66;5038051;28;20043;-77
2021/06/29 03:02:03;;;;;;;3.45;2.65;;;;;;;21.22;62.57;96970.38;5054138;28;20086;-77
2021/06/29 03:04:29;;;;;;;3.45;3.20;;;;;;;21.21;62.32;96966.91;5054315;28;20032;-78
2021/06/29 03:06:54;;;;;;;3.17;2.97;;;;;;;21.23;62.32;96971.91;5054364;28;20143;-77
2021/06/29 03:09:38;;;;;;;3.05;2.78;;;;;;;21.14;62.59;96970.06;5057122;28;21142;-77
2021/06/29 03:12:04;;;;;;;3.20;2.90;;;;;;;21.13;62.69;96971.16;5071137;28;20124;-77
2021/06/29 03:14:30;;;;;;;3.13;2.80;;;;;;;21.12;62.71;96972.25;5021313;28;20123;-78
2021/06/29 03:16:55;;;;;;;3.22;2.70;;;;;;;21.18;62.74;96980.03;5051227;28;20223;-77
2021/06/29 03:19:20;;;;;;;2.70;2.60;;;;;;;21.13;62.80;96973.06;5031526;28;20037;-77
2021/06/29 03:21:46;;;;;;;2.80;2.60;;;;;;;21.15;63.23;96965.56;5034554;28;20032;-77
2021/06/29 03:24:12;;;;;;;3.13;2.70;;;;;;;21.11;63.22;96965.41;5020936;28;20021;-77
2021/06/29 03:26:38;;;;;;;3.20;3.00;;;;;;;21.13;63.47;96951.88;5057537;28;20036;-77
2021/06/29 03:29:04;;;;;;;3.20;3.00;;;;;;;21.11;63.31;96951.38;5053402;28;20483;-77
2021/06/29 03:31:31;;;;;;;3.25;3.05;;;;;;;21.06;63.39;96944.41;5051366;28;20380;-77
2021/06/29 03:33:57;;;;;;;3.20;2.90;;;;;;;21.09;63.42;96949.06;5070196;28;20036;-77
2021/06/29 03:36:22;;;;;;;3.33;2.85;;;;;;;21.03;63.39;96945.06;5052212;28;20082;-77
2021/06/29 03:38:48;;;;;;;3.03;2.78;;;;;;;21.06;63.30;96943.63;5052978;28;20033;-77
2021/06/29 03:41:13;;;;;;;3.45;3.03;;;;;;;21.03;63.38;96944.28;5047122;28;20587;-76
2021/06/29 03:43:39;;;;;;;2.67;2.47;;;;;;;20.96;63.53;96942.13;5070441;28;20032;-77
2021/06/29 03:46:05;;;;;;;3.10;2.90;;;;;;;20.93;63.84;96953.34;5032617;28;20401;-77
2021/06/29 03:48:30;;;;;;;3.17;2.80;;;;;;;20.89;63.65;96947.13;5030797;28;20406;-76
2021/06/29 03:50:56;;;;;;;3.25;3.05;;;;;;;20.83;63.64;96940.44;5053570;28;20040;-76
2021/06/29 03:53:22;;;;;;;2.80;2.60;;;;;;;20.90;63.35;96944.16;5053384;28;20353;-77
2021/06/29 03:55:47;;;;;;;3.05;2.85;;;;;;;20.96;63.25;96950.06;5033578;28;20100;-77
2021/06/29 03:58:12;;;;;;;3.25;2.67;;;;;;;20.88;63.23;96951.63;5052818;28;20036;-77
2021/06/29 04:00:38;;;;;;;3.22;2.90;;;;;;;20.85;63.48;96954.13;5071566;28;20037;-77
2021/06/29 04:03:03;;;;;;;4.47;2.65;;;;;;;20.82;63.77;96958.22;5053277;28;20036;-77
2021/06/29 04:05:29;;;;;;;3.03;2.80;;;;;;;20.88;63.43;96961.44;5053044;28;20060;-77
2021/06/29 04:07:54;;;;;;;3.22;2.85;;;;;;;20.89;63.61;96968.31;5033215;28;20037;-77
2021/06/29 04:10:20;;;;;;;3.28;3.08;;;;;;;20.93;63.61;96971.88;5068618;28;20028;-77
2021/06/29 04:12:46;;;;;;;3.53;3.22;;;;;;;20.93;63.89;96963.94;5069819;28;20024;-77
2021/06/29 04:15:12;;;;;;;3.80;3.22;;;;;;;20.94;64.13;96965.50;5036247;28;20032;-77
2021/06/29 04:17:37;;;;;;;3.63;3.30;;;;;;;20.96;63.87;96960.66;5069416;28;20115;-77
2021/06/29 04:20:07;;;;;;;3.85;3.22;;;;;;;20.93;64.02;96969.22;5056648;28;20128;-77
2021/06/29 04:22:33;;;;;;;6.68;3.47;;;;;;;21.05;64.06;96971.97;5036411;28;20039;-77
2021/06/29 04:24:59;;;;;;;3.65;3.35;;;;;;;21.03;64.38;96966.22;5035522;28;20055;-77
2021/06/29 04:27:24;;;;;;;4.30;3.67;;;;;;;21.03;64.23;96971.53;5036109;28;20166;-76
2021/06/29 04:29:52;;;;;;;3.78;3.40;;;;;;;21.00;64.38;96950.97;5046118;28;20487;-77
2021/06/29 04:32:17;;;;;;;4.35;3.95;;;;;;;20.99;64.23;96941.50;5052989;28;20081;-77
2021/06/29 04:34:43;;;;;;;5.07;4.22;;;;;;;20.98;64.21;96937.28;5052815;28;20036;-77
2021/06/29 04:37:08;;;;;;;3.53;3.22;;;;;;;21.00;64.16;96934.31;5035854;28;20040;-77
2021/06/29 04:39:34;;;;;;;3.85;3.50;;;;;;;21.04;64.03;96933.38;5035882;28;20119;-77
2021/06/29 04:41:59;;;;;;;3.67;3.38;;;;;;;21.13;63.93;96931.47;5035884;28;20094;-77
2021/06/29 04:44:25;;;;;;;3.75;3.45;;;;;;;21.19;64.01;96947.16;5070535;28;20036;-77
2021/06/29 04:46:51;;;;;;;3.92;3.50;;;;;;;21.25;63.82;96951.16;5044984;28;20029;-77
2021/06/29 04:49:18;;;;;;;4.07;3.78;;;;;;;21.21;64.33;96952.91;5046158;28;20028;-77
2021/06/29 04:51:44;;;;;;;4.80;4.40;;;;;;;21.19;64.56;96945.28;5023016;28;20047;-77
2021/06/29 04:54:09;;;;;;;3.95;3.65;;;;;;;21.21;64.52;96942.31;5038823;28;20040;-77
2021/06/29 04:56:35;;;;;;;3.83;3.53;;;;;;;21.23;64.25;96943.56;5054811;28;20542;-77
2021/06/29 04:59:02;;;;;;;3.70;3.40;;;;;;;21.31;63.74;96941.97;5052742;28;20088;-77
2021/06/29 05:01:29;;;;;;;3.45;3.15;;;;;;;21.33;63.81;96945.06;5069416;28;20037;-77
2021/06/29 05:03:54;;;;;;;4.22;3.22;;;;;;;21.36;63.60;96948.94;5067413;28;20865;-77
2021/06/29 05:06:20;;;;;;;4.10;3.70;;;;;;;21.31;63.91;96947.25;5039211;28;20123;-77
2021/06/29 05:08:46;;;;;;;3.67;3.38;;;;;;;21.32;63.26;96946.16;5047586;28;20027;-77
2021/06/29 05:11:11;;;;;;;3.55;3.30;;;;;;;21.35;63.36;96948.16;5049086;28;20055;-77
2021/06/29 05:13:36;;;;;;;4.05;3.65;;;;;;;21.35;63.48;96945.50;5067851;28;20119;-77
2021/06/29 05:16:02;;;;;;;4.78;4.38;;;;;;;21.38;63.43;96941.47;5047949;28;20029;-77
2021/06/29 05:18:31;;;;;;;4.57;3.40;;;;;;;21.32;63.27;96943.53;5026467;28;20027;-77
2021/06/29 05:20:56;;;;;;;5.60;3.95;;;;;;;21.48;63.14;96935.81;5050377;28;20029;-77
2021/06/29 05:23:22;;;;;;;3.72;3.42;;;;;;;21.49;63.83;96934.72;5065263;28;20042;-77
2021/06/29 05:25:48;;;;;;;3.75;3.45;;;;;;;21.54;63.48;96931.09;5054816;28;20483;-77
2021/06/29 05:28:17;;;;;;;3.28;3.08;;;;;;;21.61;63.03;96934.00;5006134;28;20028;-77
2021/06/29 05:30:44;;;;;;;5.07;3.95;;;;;;;21.69;62.47;96926.03;5030719;28;20028;-77
2021/06/29 05:33:10;;;;;;;3.80;3.50;;;;;;;21.75;62.74;96937.19;5051750;28;20036;-77
2021/06/29 05:35:35;;;;;;;3.45;3.15;;;;;;;21.71;63.24;96923.03;5032258;28;20106;-77
2021/06/29 05:38:01;;;;;;;3.65;3.35;;;;;;;21.73;62.82;96930.66;5051583;28;20070;-77
2021/06/29 05:40:27;;;;;;;3.63;3.03;;;;;;;21.74;62.95;96925.03;5051843;28;20436;-77
2021/06/29 05:42:53;;;;;;;3.83;3.40;;;;;;;21.74;62.60;96921.63;5033373;28;20112;-77
2021/06/29 05:45:18;;;;;;;3.30;3.00;;;;;;;21.79;62.61;96913.47;5067951;28;20119;-77
2021/06/29 05:47:43;;;;;;;3.70;3.40;;;;;;;21.80;62.77;96915.03;5031883;28;20479;-77
2021/06/29 05:50:10;;;;;;;3.38;3.08;;;;;;;21.88;62.42;96914.19;5051938;28;20425;-77
2021/06/29 05:52:36;;;;;;;3.60;3.38;;;;;;;21.92;62.01;96909.00;5067231;28;20073;-77
2021/06/29 05:55:01;;;;;;;3.85;3.05;;;;;;;22.00;61.96;96914.25;5040903;28;20475;-77
2021/06/29 05:57:27;;;;;;;3.30;3.00;;;;;;;22.01;62.25;96907.06;5051360;28;20025;-77
2021/06/29 05:59:53;;;;;;;3.20;3.00;;;;;;;22.07;61.97;96909.19;5067932;28;20209;-77
2021/06/29 06:02:18;;;;;;;3.67;3.35;;;;;;;22.07;62.16;96903.09;5048107;28;20116;-77
2021/06/29 06:04:43;;;;;;;4.65;3.10;;;;;;;22.21;61.41;96903.59;5064808;28;20037;-78
2021/06/29 06:07:09;;;;;;;3.30;3.00;;;;;;;22.31;60.85;96904.31;5049865;28;20028;-77
2021/06/29 06:09:34;;;;;;;3.50;3.20;;;;;;;22.37;61.07;96906.44;5051190;28;20718;-77
2021/06/29 06:12:00;;;;;;;3.28;2.97;;;;;;;22.53;59.89;96906.56;5034707;28;20061;-77
2021/06/29 06:14:26;;;;;;;3.25;2.95;;;;;;;22.62;59.82;96904.63;5049654;28;20036;-77
2021/06/29 06:16:51;;;;;;;3.38;3.08;;;;;;;22.62;60.47;96903.84;5034759;28;20024;-77
2021/06/29 06:19:16;;;;;;;4.15;3.60;;;;;;;22.59;60.47;96913.22;5068099;28;20032;-77
2021/06/29 06:21:42;;;;;;;4.00;3.70;;;;;;;22.69;59.75;96905.94;5048354;28;20112;-77
2021/06/29 06:24:08;;;;;;;3.65;3.10;;;;;;;22.83;59.18;96910.97;5050706;28;20036;-77
2021/06/29 06:26:33;;;;;;;3.55;3.25;;;;;;;22.96;58.80;96915.94;5035033;28;20048;-77
2021/06/29 06:28:58;;;;;;;4.15;3.80;;;;;;;23.00;58.46;96922.13;5049756;28;20040;-77
2021/06/29 06:31:24;;;;;;;3.70;3.40;;;;;;;23.09;57.76;96918.63;5051179;28;20056;-77
2021/06/29 06:33:49;;;;;;;3.95;3.50;;;;;;;22.98;58.55;96913.72;5047197;28;20036;-77
2021/06/29 06:36:15;;;;;;;3.85;3.55;;;;;;;22.91;59.23;96918.03;5067854;28;20032;-77
2021/06/29 06:38:40;;;;;;;5.40;3.63;;;;;;;23.22;58.42;96920.19;5056599;28;20032;-77
2021/06/29 06:41:06;;;;;;;3.97;3.70;;;;;;;23.49;57.09;96921.38;5067930;28;20039;-77
2021/06/29 06:43:31;;;;;;;3.97;3.38;;;;;;;23.72;56.87;96924.28;5048181;28;20104;-77
2021/06/29 06:45:57;;;;;;;4.03;3.33;;;;;;;23.84;55.78;96914.78;5048377;28;20111;-77
2021/06/29 06:48:22;;;;;;;5.03;3.78;;;;;;;23.95;54.84;96910.53;5031273;28;20033;-77
2021/06/29 06:50:48;;;;;;;4.38;3.78;;;;;;;23.90;55.88;96913.41;5051165;28;20028;-76
2021/06/29 06:53:14;;;;;;;3.72;3.42;;;;;;;24.00;55.89;96910.28;5068714;28;20040;-77
2021/06/29 06:55:40;;;;;;;4.43;4.13;;;;;;;24.16;55.66;96915.63;5050112;28;20029;-77
2021/06/29 06:58:05;;;;;;;3.63;3.35;;;;;;;24.63;53.74;96906.22;5047401;28;20090;-77
2021/06/29 07:00:31;;;;;;;3.60;3.10;;;;;;;24.88;52.95;96908.72;5031463;28;20476;-76
2021/06/29 07:02:56;;;;;;;3.60;3.30;;;;;;;24.90;53.60;96915.25;5066133;28;20033;-76
2021/06/29 07:05:22;;;;;;;3.38;3.00;;;;;;;25.15;51.94;96905.16;5067275;28;20094;-77
2021/06/29 07:07:47;;;;;;;3.60;3.35;;;;;;;25.00;52.07;96893.44;5043701;28;20080;-76
2021/06/29 07:10:14;;;;;;;3.15;2.90;;;;;;;24.94;51.19;96894.03;5068102;28;20040;-76
2021/06/29 07:12:39;;;;;;;3.67;3.10;;;;;;;24.85;51.90;96896.88;5057105;28;20116;-76
2021/06/29 07:15:06;;;;;;;3.33;3.03;;;;;;;24.65;52.42;96898.66;5036871;28;20116;-76
2021/06/29 07:17:34;;;;;;;3.67;3.38;;;;;;;24.55;53.51;96902.59;5018696;28;20029;-77
2021/06/29 07:19:59;;;;;;;3.47;3.28;;;;;;;24.42;53.92;96906.41;5045604;28;20078;-76
2021/06/29 07:22:24;;;;;;;2.92;2.72;;;;;;;24.57;52.59;96902.25;5046115;28;20025;-77
2021/06/29 07:24:50;;;;;;;3.30;3.00;;;;;;;24.85;51.96;96896.88;5060233;28;20044;-77
2021/06/29 07:27:16;;;;;;;3.38;2.63;;;;;;;25.16;50.96;96893.41;5049608;28;20029;-76
2021/06/29 07:29:42;;;;;;;3.60;3.20;;;;;;;25.43;50.68;96890.97;5070004;28;20046;-76
2021/06/29 07:32:07;;;;;;;3.08;2.88;;;;;;;25.83;50.10;96897.09;5031059;28;20097;-76
2021/06/29 07:34:35;;;;;;;3.17;2.97;;;;;;;25.78;49.48;96887.47;5067974;28;20029;-76
2021/06/29 07:37:01;;;;;;;2.92;2.67;;;;;;;26.14;48.94;96893.53;5046617;28;20132;-76
2021/06/29 07:39:26;;;;;;;2.70;2.50;;;;;;;26.50;48.47;96889.56;5046272;28;20511;-76
2021/06/29 07:41:54;;;;;;;2.53;2.33;;;;;;;26.49;46.20;96889.94;5032856;28;20025;-76
2021/06/29 07:44:19;;;;;;;2.85;2.65;;;;;;;25.88;48.29;96870.91;5051521;28;20819;-76
2021/06/29 07:46:45;;;;;;;3.05;2.75;;;;;;;25.66;49.79;96879.63;5068747;28;20040;-76
2021/06/29 07:49:10;;;;;;;3.10;2.78;;;;;;;25.99;47.91;96876.47;5052423;28;20655;-76
2021/06/29 07:51:36;;;;;;;3.05;2.75;;;;;;;25.75;49.84;96880.94;5042415;28;20029;-76
2021/06/29 07:54:03;;;;;;;3.40;2.55;;;;;;;25.69;49.24;96877.03;5036161;28;20037;-76
2021/06/29 07:56:29;;;;;;;2.25;2.00;;;;;;;26.19;46.51;96868.44;5051679;28;20101;-76
2021/06/29 07:58:55;;;;;;;1.63;1.50;;;;;;;26.52;44.67;96862.53;5066512;28;20028;-76
2021/06/29 08:01:20;;;;;;;2.10;2.00;;;;;;;26.83;43.73;96860.75;5050432;28;20032;-76
2021/06/29 08:03:45;;;;;;;1.90;1.80;;;;;;;27.17;43.26;96861.63;5067698;28;20071;-76
2021/06/29 08:06:11;;;;;;;2.13;2.03;;;;;;;27.25;43.53;96857.16;5043083;28;20283;-76
2021/06/29 08:08:37;;;;;;;2.00;1.90;;;;;;;27.62;44.30;96859.16;5066266;28;20499;-76
2021/06/29 08:11:07;;;;;;;1.80;1.70;;;;;;;27.48;43.56;96856.31;5031209;28;20123;-76
2021/06/29 08:13:34;;;;;;;2.17;2.08;;;;;;;27.97;43.43;96858.06;5046282;28;20381;-76
2021/06/29 08:15:59;;;;;;;2.10;1.98;;;;;;;28.31;41.70;96858.00;5017133;28;20028;-76
2021/06/29 08:18:27;;;;;;;2.00;1.90;;;;;;;27.96;41.63;96856.50;5049162;28;20024;-76
2021/06/29 08:20:53;;;;;;;2.00;1.90;;;;;;;27.97;42.64;96863.41;5067199;28;20037;-76
2021/06/29 08:23:18;;;;;;;2.75;2.55;;;;;;;28.05;42.49;96869.59;5053474;28;20038;-76
2021/06/29 08:25:44;;;;;;;2.42;2.25;;;;;;;28.18;43.39;96855.59;5053050;28;20052;-76
2021/06/29 08:28:13;;;;;;;2.08;1.98;;;;;;;28.19;41.46;96854.47;5051214;28;20036;-75
2021/06/29 08:30:39;;;;;;;2.03;1.80;;;;;;;28.06;41.69;96850.50;5066804;28;20028;-76
2021/06/29 08:33:10;;;;;;;2.10;2.00;;;;;;;28.16;41.07;96847.16;5066974;28;20039;-76
2021/06/29 08:35:38;;;;;;;1.70;1.67;;;;;;;28.19;42.29;96851.78;5047886;28;20035;-75
2021/06/29 08:38:04;;;;;;;2.15;1.95;;;;;;;28.23;42.43;96843.78;5015060;28;20017;-75
2021/06/29 08:40:32;;;;;;;1.83;1.73;;;;;;;28.34;43.55;96833.16;5008098;28;20051;-75
2021/06/29 08:42:57;;;;;;;1.90;1.80;;;;;;;28.55;41.92;96832.63;5049988;28;20028;-75
2021/06/29 08:45:25;;;;;;;2.60;2.10;;;;;;;29.25;39.77;96830.00;5028509;28;20043;-76
2021/06/29 08:47:50;;;;;;;2.20;2.00;;;;;;;29.26;38.06;96815.47;5045150;28;20047;-76
2021/06/29 08:50:16;;;;;;;8.98;7.00;;;;;;;29.70;36.93;96827.91;5035722;28;20024;-76
2021/06/29 08:52:42;;;;;;;1.55;1.50;;;;;;;29.07;38.68;96819.16;5067020;28;20150;-76
2021/06/29 08:55:09;;;;;;;1.88;1.77;;;;;;;29.28;38.88;96819.28;5028778;28;20037;-75
2021/06/29 08:57:35;;;;;;;1.77;1.67;;;;;;;28.95;38.92;96820.25;5048945;28;20594;-75
2021/06/29 09:00:00;;;;;;;1.85;1.75;;;;;;;28.99;39.50;96812.97;5048619;28;20331;-76
2021/06/29 09:02:27;;;;;;;1.83;1.73;;;;;;;29.16;39.00;96806.22;5065783;28;20099;-75
2021/06/29 09:04:56;;;;;;;1.80;1.70;;;;;;;29.39;38.61;96791.75;5032951;28;20037;-75
2021/06/29 09:07:26;;;;;;;1.65;1.55;;;;;;;29.14;38.20;96787.03;5067188;28;20090;-75
2021/06/29 09:09:57;;;;;;;14.80;8.02;;;;;;;29.64;38.09;96783.78;5032538;28;20035;-75
2021/06/29 09:12:42;;;;;;;4.63;3.17;;;;;;;29.75;37.54;96787.28;5048541;28;20060;-75
2021/06/29 09:15:32;;;;;;;2.95;2.20;;;;;;;29.97;37.56;96790.78;5041741;28;20048;-75
2021/06/29 09:18:32;;;;;;;2.03;1.83;;;;;;;30.42;35.51;96793.91;5048994;28;20758;-75
2021/06/29 09:21:05;;;;;;;2.13;1.77;;;;;;;31.01;34.25;96790.00;5033185;28;20093;-75
2021/06/29 09:23:39;;;;;;;2.08;1.80;;;;;;;30.65;36.66;96787.34;5066520;28;20029;-76
2021/06/29 09:26:06;;;;;;;2.20;2.10;;;;;;;30.20;36.89;96785.03;5037825;28;20033;-75
2021/06/29 09:28:41;;;;;;;1.80;1.70;;;;;;;30.06;37.21;96768.94;5048487;28;20029;-75
2021/06/29 09:31:09;;;;;;;2.00;1.90;;;;;;;29.91;37.04;96772.75;5061889;28;20021;-75
2021/06/29 09:33:38;;;;;;;3.38;2.97;;;;;;;29.97;36.53;96766.63;5066706;28;20040;-76
2021/06/29 09:36:06;;;;;;;24.17;10.52;;;;;;;30.29;37.28;96759.72;5047393;28;20060;-76
2021/06/29 09:38:37;;;;;;;3.28;2.65;;;;;;;30.59;35.61;96756.66;5050121;28;20021;-76
2021/06/29 09:41:08;;;;;;;2.80;2.22;;;;;;;30.99;35.91;96750.03;5033407;28;20021;-76
2021/06/29 09:43:39;;;;;;;1.98;1.73;;;;;;;29.96;37.07;96743.63;5066885;28;20071;-76
2021/06/29 09:46:13;;;;;;;2.22;2.00;;;;;;;29.39;37.72;96748.84;5033712;28;20050;-76
2021/06/29 09:48:47;;;;;;;2.40;2.20;;;;;;;29.65;37.20;96751.22;5033111;28;20060;-75
2021/06/29 09:51:20;;;;;;;1.90;1.80;;;;;;;29.92;37.52;96755.47;5065308;28;20353;-76
2021/06/29 09:53:48;;;;;;;2.10;2.00;;;;;;;29.59;38.06;96752.72;5047711;28;20039;-75
2021/06/29 09:56:16;;;;;;;2.42;2.00;;;;;;;29.02;38.41;96755.19;5048205;28;20048;-76
2021/06/29 09:58:49;;;;;;;3.17;1.77;;;;;;;29.01;39.25;96764.38;5031560;28;20368;-75
2021/06/29 10:01:15;;;;;;;2.08;1.95;;;;;;;28.99;38.42;96767.41;5049322;28;20021;-76
2021/06/29 10:03:42;;;;;;;2.00;1.90;;;;;;;28.80;38.96;96757.75;5066367;28;20020;-77
2021/06/29 10:06:19;;;;;;;3.13;2.00;;;;;;;28.72;40.22;96756.16;5049308;28;20029;-76
2021/06/29 10:08:47;;;;;;;2.20;2.10;;;;;;;28.54;40.03;96766.75;5048408;28;20044;-76
2021/06/29 10:11:23;;;;;;;2.20;2.10;;;;;;;28.69;40.26;96773.78;5032733;28;20028;-76
2021/06/29 10:14:07;;;;;;;2.90;2.13;;;;;;;28.05;39.87;96770.56;5021655;28;20448;-76
2021/06/29 10:16:38;;;;;;;2.45;2.25;;;;;;;27.86;40.02;96771.53;5046861;28;20963;-76
2021/06/29 10:21:34;;;;;;;2.42;2.33;;;;;;;27.89;40.07;96786.84;5050173;28;20028;-75
2021/06/29 10:24:03;;;;;;;2.00;1.90;;;;;;;27.92;40.41;96780.78;5049811;28;20024;-75
2021/06/29 10:26:30;;;;;;;3.25;2.72;;;;;;;27.84;41.46;96783.34;5010150;28;20539;-76
2021/06/29 10:28:56;;;;;;;3.28;2.20;;;;;;;27.77;41.78;96793.22;5030213;28;20025;-76
2021/06/29 10:31:27;;;;;;;2.38;2.17;;;;;;;27.45;40.69;96786.41;5046791;28;20123;-75
2021/06/29 10:33:55;;;;;;;2.40;2.30;;;;;;;27.30;41.17;96778.56;5025718;28;20112;-76
2021/06/29 10:36:22;;;;;;;1.98;1.88;;;;;;;27.26;40.71;96770.47;5063388;28;20483;-76
2021/06/29 10:38:48;;;;;;;2.15;2.05;;;;;;;27.16;41.40;96768.44;5048927;28;20048;-76
2021/06/29 10:41:14;;;;;;;2.38;2.00;;;;;;;27.00;42.55;96763.28;5045674;28;20498;-76
2021/06/29 10:43:41;;;;;;;3.25;2.20;;;;;;;27.14;41.39;96768.78;5035978;28;20029;-75
2021/06/29 10:46:33;;;;;;;2.22;2.03;;;;;;;27.06;40.10;96753.81;5036508;28;20091;-76
2021/06/29 10:49:31;;;;;;;1.90;1.80;;;;;;;27.13;40.82;96756.59;5053139;28;20036;-76
2021/06/29 10:52:22;;;;;;;1.90;1.80;;;;;;;26.97;41.80;96756.75;5052726;28;20032;-76
2021/06/29 10:54:52;;;;;;;2.17;2.08;;;;;;;27.00;40.70;96752.59;5036254;28;20079;-76
2021/06/29 10:57:22;;;;;;;1.83;1.67;;;;;;;27.02;40.75;96748.41;5030056;28;20033;-76
2021/06/29 10:59:50;;;;;;;2.35;1.70;;;;;;;27.07;40.16;96744.66;5036920;28;20034;-76
2021/06/29 11:02:35;;;;;;;1.77;1.67;;;;;;;27.00;40.24;96750.69;5032843;28;20032;-76
2021/06/29 11:05:04;;;;;;;;;;;;;;;26.83;40.83;96743.97;5034847;28;20040;-76
2021/06/29 11:07:29;;;;;;;1.92;1.83;;;;;;;26.88;41.93;96741.00;5036601;28;19916;-76
2021/06/29 11:10:04;;;;;;;2.03;1.92;;;;;;;26.83;41.71;96729.84;5052227;28;20474;-76
2021/06/29 11:12:32;;;;;;;2.20;2.00;;;;;;;26.81;41.67;96732.13;5052875;28;20048;-76
2021/06/29 11:14:59;;;;;;;1.83;1.73;;;;;;;26.74;41.17;96742.72;5052556;28;20052;-76
2021/06/29 11:17:46;;;;;;;2.25;1.85;;;;;;;26.52;42.14;96755.72;5036494;28;20059;-76
2021/06/29 11:20:14;;;;;;;1.80;1.70;;;;;;;26.25;43.60;96750.38;5037081;28;20123;-76
2021/06/29 11:22:56;;;;;;;1.92;1.83;;;;;;;26.11;43.84;96740.22;5016918;28;20064;-76
2021/06/29 11:25:43;;;;;;;2.22;2.08;;;;;;;25.81;44.19;96729.44;5014241;28;20044;-76
2021/06/29 11:28:16;;;;;;;2.13;1.83;;;;;;;25.92;43.32;96732.25;5022646;28;20079;-76
2021/06/29 11:31:01;;;;;;;2.08;1.92;;;;;;;25.82;44.08;96736.28;5069765;28;20036;-76
2021/06/29 11:33:45;;;;;;;1.90;1.80;;;;;;;25.75;44.33;96739.59;5038629;28;20040;-76
2021/06/29 11:36:29;;;;;;;1.70;1.60;;;;;;;25.68;44.68;96734.13;5064373;28;20039;-76
2021/06/29 11:38:57;;;;;;;2.13;1.85;;;;;;;25.58;45.61;96740.84;5067580;28;20070;-76